Latest Weather Observations for Tidbinbilla

IDN60901

Issued at 11:51 am EST Tuesday 7 July 2020 (issued every 10 minutes, with the page automatically refreshed every 10 minutes)

About weather observations | Map of Canberra area stations | Latest observations for Canberra area | Other Formats
Station Details ID: 250069 Name: TIDBINBILLA (PCS) Lat: -35.46 Lon: 148.94 Height: 883.0 m

Portable automatic weather stations (PAWS) are operated by other organisations, such as Fire and Emergency Services, and are included here by agreement. Portable stations may be deployed to a location for a short period and their location may be subject to change without notice. Wind observations from these stations are provided from heights of either three (3) or ten (10) metres above ground level (AGL).

Data from the previous 72 hours. | See also: Recent months for locations in Aust Capital Territory
Date/Time
EST
Temp
°C
App
Temp
°C
Dew
Point
°C
Rel
Hum
%
Delta-T
°C
Wind Press
QNH
hPa
Press
MSL
hPa
Rain since
9am
mm
Dir  Spd
km/h
Gust
km/h
Spd
kts
Gust
kts
07/11:00am 9.0 7.3 4.0 71 2.3 SSW 2 4 1 2 1031.7 - 0.0
07/10:50am 8.3 6.6 4.1 75 1.9 WSW 2 6 1 3 1031.8 - 0.0
07/10:40am 7.6 5.2 4.2 79 1.6 NNW 6 7 3 4 1031.8 - 0.0
07/10:20am 7.2 4.8 4.1 81 1.4 WNW 6 7 3 4 1031.8 - 0.0
07/10:10am 7.4 5.3 3.7 77 1.7 SSW 4 7 2 4 1031.7 - 0.0
07/10:00am 7.1 5.3 3.5 78 1.6 WSW 2 4 1 2 1031.6 - 0.0
07/09:50am 6.8 5.0 3.5 79 1.5 WSW 2 4 1 2 1031.6 - 0.0
07/09:40am 6.7 4.9 3.2 78 1.6 W 2 2 1 1 1031.6 - 0.0
07/09:30am 6.5 4.6 2.7 77 1.7 SW 2 4 1 2 1031.6 - 0.0
07/09:20am 6.6 4.7 3.1 78 1.5 NW 2 4 1 2 1031.5 - 0.0
07/09:10am 6.4 4.5 2.8 78 1.6 NW 2 4 1 2 1031.4 - 0.0
07/09:00am 6.2 4.3 2.6 78 1.6 NNW 2 4 1 2 1031.3 - 0.0
07/08:50am 6.0 4.4 2.7 79 1.4 CALM 0 2 0 1 1031.2 - 0.0
07/08:40am 5.7 4.1 2.3 79 1.5 CALM 0 2 0 1 1031.1 - 0.0
07/08:20am 4.8 2.7 1.5 79 1.4 SSW 2 4 1 2 1031.0 - 0.0
07/08:10am 4.6 2.9 1.6 81 1.3 CALM 0 4 0 2 1030.9 - 0.0
07/08:00am 4.2 2.4 1.5 82 1.1 CALM 0 2 0 1 1030.9 - 0.0
07/07:50am 3.8 2.0 1.4 84 1.0 CALM 0 0 0 0 1030.9 - 0.0
07/07:40am 3.1 0.9 1.0 86 0.9 WSW 2 4 1 2 1030.7 - 0.0
07/07:30am 3.0 0.8 1.0 87 0.8 NE 2 4 1 2 1030.7 - 0.0
07/07:20am 2.7 0.5 1.0 88 0.7 SSE 2 4 1 2 1030.6 - 0.0
07/07:10am 2.6 0.8 0.9 88 0.7 CALM 0 0 0 0 1030.6 - 0.0
07/07:00am 2.5 0.7 1.1 90 0.6 CALM 0 0 0 0 1030.5 - 0.0
07/06:50am 2.5 0.3 1.1 90 0.6 S 2 4 1 2 1030.4 - 0.0
07/06:40am 2.5 -0.1 1.2 91 0.5 S 4 7 2 4 1030.3 - 0.0
07/06:30am 2.4 0.2 1.2 92 0.5 SSW 2 4 1 2 1030.2 - 0.0
07/06:00am 2.5 0.7 1.3 92 0.5 CALM 0 0 0 0 1029.9 - 0.0
07/05:50am 2.6 0.8 1.3 91 0.5 CALM 0 2 0 1 1029.8 - 0.0
07/05:30am 2.5 0.0 1.4 92 0.4 S 4 4 2 2 1029.6 - 0.0
07/05:20am 2.4 0.3 1.5 94 0.4 S 2 4 1 2 1029.6 - 0.0
07/05:10am 2.3 0.2 1.5 94 0.3 S 2 4 1 2 1029.5 - 0.0
07/05:00am 2.4 0.3 1.5 94 0.4 S 2 4 1 2 1029.6 - 0.0
07/04:50am 2.3 0.2 1.5 94 0.3 S 2 4 1 2 1029.5 - 0.0
07/04:40am 2.2 0.4 1.5 95 0.3 CALM 0 4 0 2 1029.5 - 0.0
07/04:30am 2.2 0.4 1.4 94 0.3 CALM 0 0 0 0 1029.5 - 0.0
07/04:20am 2.4 0.7 1.6 94 0.3 CALM 0 2 0 1 1029.5 - 0.0
07/04:10am 2.6 0.9 1.7 94 0.4 CALM 0 2 0 1 1029.3 - 0.0
07/04:00am 2.6 0.9 1.9 95 0.3 CALM 0 2 0 1 1029.4 - 0.0
07/03:50am 2.5 0.4 1.9 96 0.2 S 2 4 1 2 1029.4 - 0.0
07/03:40am 2.5 0.4 2.0 96 0.2 SSE 2 4 1 2 1029.4 - 0.0
07/03:30am 2.4 0.3 1.9 96 0.2 SSW 2 4 1 2 1029.4 - 0.0
07/03:20am 2.6 0.6 2.1 96 0.2 SSW 2 4 1 2 1029.5 - 0.0
07/03:10am 2.5 0.5 2.1 97 0.2 SSE 2 2 1 1 1029.6 - 0.0
07/03:00am 2.4 0.7 2.0 97 0.2 CALM 0 0 0 0 1029.6 - 0.0
07/02:50am 2.3 0.2 1.9 97 0.2 S 2 4 1 2 1029.6 - 0.0
07/02:40am 2.3 0.2 1.9 97 0.2 SSW 2 4 1 2 1029.5 - 0.0
07/02:30am 2.3 0.6 2.0 98 0.1 CALM 0 0 0 0 1029.5 - 0.0
07/02:10am 2.4 0.7 2.1 98 0.1 CALM 0 0 0 0 1029.4 - 0.0
07/02:00am 2.3 0.6 2.1 99 0.1 CALM 0 0 0 0 1029.3 - 0.0
07/01:50am 2.3 0.2 2.0 98 0.1 WSW 2 2 1 1 1029.4 - 0.0
07/01:40am 2.4 0.0 2.3 99 0.0 SSW 4 6 2 3 1029.5 - 0.0
07/01:30am 2.4 0.0 2.4 100 0.0 SSW 4 4 2 2 1029.5 - 0.0
07/01:20am 2.3 -0.1 2.3 100 0.0 S 4 6 2 3 1029.6 - 0.0
07/01:10am 2.3 -0.5 2.3 100 0.0 S 6 7 3 4 1029.6 - 0.0
07/01:00am 2.3 -0.7 2.3 100 0.0 S 7 9 4 5 1029.6 - 0.0
07/12:50am 2.4 0.0 2.4 100 0.0 S 4 6 2 3 1029.8 - 0.0
07/12:40am 2.2 -0.2 2.2 100 0.0 S 4 4 2 2 1029.8 - 0.0
07/12:30am 2.2 0.6 2.2 100 0.0 CALM 0 4 0 2 1030.0 - 0.0
07/12:20am 2.3 0.7 2.3 100 0.0 CALM 0 0 0 0 1030.0 - 0.0
07/12:10am 2.2 0.6 2.2 100 0.0 CALM 0 0 0 0 1030.0 - 0.0
07/12:00am 2.1 0.4 2.1 100 0.0 CALM 0 0 0 0 1029.9 - 0.0
 
Date/Time
EST
Temp
°C
App
Temp
°C
Dew
Point
°C
Rel
Hum
%
Delta-T
°C
Wind Press
QNH
hPa
Press
MSL
hPa
Rain since
9am
mm
Dir  Spd
km/h
Gust
km/h
Spd
kts
Gust
kts
06/11:50pm 2.4 0.8 2.4 100 0.0 CALM 0 0 0 0 1029.9 - 0.0
06/11:40pm 2.3 0.7 2.3 100 0.0 CALM 0 0 0 0 1030.0 - 0.0
06/11:30pm 2.2 0.6 2.2 100 0.0 CALM 0 2 0 1 1030.0 - 0.0
06/11:20pm 2.3 0.7 2.3 100 0.0 CALM 0 0 0 0 1030.1 - 0.0
06/11:10pm 2.6 1.0 2.5 99 0.0 CALM 0 2 0 1 1030.1 - 0.0
06/11:00pm 2.9 1.4 2.9 100 0.0 CALM 0 0 0 0 1030.2 - 0.0
06/10:50pm 2.7 1.1 2.7 100 0.0 CALM 0 0 0 0 1030.1 - 0.0
06/10:40pm 2.7 1.1 2.7 100 0.0 CALM 0 0 0 0 1030.2 - 0.0
06/10:30pm 2.3 0.7 2.3 100 0.0 CALM 0 0 0 0 1030.2 - 0.0
06/10:20pm 2.0 0.3 2.0 100 0.0 CALM 0 2 0 1 1030.1 - 0.0
06/10:10pm 1.8 0.1 1.7 99 0.0 CALM 0 0 0 0 1030.2 - 0.0
06/10:00pm 1.8 0.1 1.8 100 0.0 CALM 0 0 0 0 1030.1 - 0.0
06/09:50pm 1.3 -0.5 1.3 100 0.0 CALM 0 0 0 0 1030.1 - 0.0
06/09:40pm 1.3 -0.5 1.3 100 0.0 CALM 0 0 0 0 1030.0 - 0.0
06/09:30pm 1.2 -0.6 1.2 100 0.0 CALM 0 0 0 0 1030.0 - 0.0
06/09:10pm 0.4 -1.9 0.4 100 0.0 NE 2 4 1 2 1030.1 - 0.0
06/08:50pm 0.7 -1.9 0.7 100 0.0 SSW 4 4 2 2 1030.1 - 0.0
06/08:40pm 1.0 -2.0 0.9 99 0.0 S 6 6 3 3 1030.0 - 0.0
06/08:30pm 1.3 -0.5 1.3 100 0.0 CALM 0 4 0 2 1030.1 - 0.0
06/08:20pm 1.5 -1.0 1.4 99 0.0 NNE 4 6 2 3 1029.9 - 0.0
06/08:10pm 1.6 -1.3 1.5 99 0.0 NNE 6 7 3 4 1029.9 - 0.0
06/08:00pm 2.2 -0.6 2.2 100 0.0 NNE 6 7 3 4 1029.8 - 0.0
06/07:50pm 2.6 0.7 2.6 100 0.0 NNE 2 4 1 2 1029.7 - 0.0
06/07:40pm 1.7 0.0 1.7 100 0.0 CALM 0 0 0 0 1029.6 - 0.0
06/07:30pm 1.6 -0.1 1.6 100 0.0 CALM 0 2 0 1 1029.6 - 0.0
06/07:20pm 1.6 -0.5 1.5 99 0.0 ESE 2 4 1 2 1029.4 - 0.0
06/07:10pm 1.8 0.1 1.7 99 0.0 CALM 0 2 0 1 1029.4 - 0.0
06/07:00pm 2.0 0.3 1.9 99 0.0 CALM 0 2 0 1 1029.4 - 0.0
06/06:50pm 2.1 0.0 2.0 99 0.0 N 2 4 1 2 1029.2 - 0.0
06/06:40pm 2.1 0.0 2.0 99 0.0 N 2 4 1 2 1029.0 - 0.0
06/06:30pm 2.2 -0.2 2.1 99 0.0 N 4 6 2 3 1028.9 - 0.0
06/06:20pm 2.2 -0.2 2.1 99 0.0 NNE 4 6 2 3 1028.8 - 0.0
06/06:10pm 2.1 0.4 1.9 99 0.1 CALM 0 4 0 2 1028.7 - 0.0
06/06:00pm 2.1 0.0 1.9 99 0.1 SSW 2 4 1 2 1028.7 - 0.0
06/05:50pm 2.2 0.1 1.9 98 0.1 S 2 4 1 2 1028.6 - 0.0
06/05:40pm 2.3 0.3 2.1 99 0.1 SW 2 2 1 1 1028.4 - 0.0
06/05:30pm 2.8 1.2 2.5 98 0.1 CALM 0 0 0 0 1028.3 - 0.0
06/05:20pm 2.9 1.3 2.5 97 0.2 CALM 0 0 0 0 1028.2 - 0.0
06/05:10pm 3.1 1.5 2.7 97 0.2 CALM 0 4 0 2 1028.0 - 0.0
06/05:00pm 3.4 1.9 2.9 97 0.2 CALM 0 2 0 1 1027.9 - 0.0
06/04:50pm 3.8 1.9 3.1 95 0.3 S 2 4 1 2 1027.8 - 0.0
06/04:40pm 4.5 2.7 3.6 94 0.4 S 2 4 1 2 1027.7 - 0.0
06/04:30pm 5.6 3.9 4.0 89 0.7 SW 2 4 1 2 1027.7 - 0.0
06/04:20pm 6.4 4.4 4.5 88 0.9 W 4 6 2 3 1027.7 - 0.0
06/04:10pm 7.2 5.6 4.7 84 1.2 WSW 2 4 1 2 1027.6 - 0.0
06/04:00pm 7.2 5.6 4.7 84 1.2 WSW 2 4 1 2 1027.7 - 0.0
06/03:50pm 7.6 5.7 4.8 82 1.3 WSW 4 4 2 2 1027.7 - 0.0
06/03:40pm 8.1 6.2 5.0 81 1.5 WSW 4 6 2 3 1027.7 - 0.0
06/03:20pm 8.3 6.1 5.1 80 1.5 NW 6 6 3 3 1027.7 - 0.0
06/03:00pm 9.1 7.5 4.7 74 2.1 NNW 2 6 1 3 1027.6 - 0.0
06/02:50pm 9.3 7.4 4.8 73 2.1 NNW 4 7 2 4 1027.6 - 0.0
06/02:40pm 9.6 7.1 4.7 71 2.3 NNW 7 9 4 5 1027.5 - 0.0
06/02:30pm 9.8 7.4 5.3 73 2.2 NNW 7 9 4 5 1027.5 - 0.0
06/02:20pm 9.8 7.5 5.8 76 1.9 NNW 7 9 4 5 1027.5 - 0.0
06/01:00pm 10.3 8.0 5.5 72 2.3 NNW 7 9 4 5 1027.8 - 0.0
06/12:50pm 9.7 7.4 5.8 77 1.9 NW 7 9 4 5 1027.9 - 0.0
06/12:40pm 9.2 6.8 5.1 75 1.9 NW 7 7 4 4 1028.0 - 0.0
06/12:30pm 8.9 6.5 4.2 72 2.2 NW 6 7 3 4 1028.2 - 0.0
06/12:20pm 8.6 6.5 4.0 73 2.1 NW 4 6 2 3 1028.2 - 0.0
06/12:10pm 8.4 6.0 4.4 76 1.9 NW 6 6 3 3 1028.4 - 0.0
06/12:00pm 8.0 5.5 4.0 76 1.8 NW 6 7 3 4 1028.5 - 0.0
06/11:50am 8.1 5.7 4.2 76 1.8 NW 6 6 3 3 1028.6 - 0.0
06/11:40am 8.2 6.2 4.3 76 1.8 WNW 4 6 2 3 1028.8 - 0.0
06/11:30am 8.1 5.7 4.2 76 1.8 NW 6 6 3 3 1028.9 - 0.0
06/11:20am 8.2 5.8 4.5 77 1.7 NW 6 6 3 3 1029.0 - 0.0
06/11:10am 7.9 5.5 4.2 77 1.7 NW 6 6 3 3 1029.0 - 0.0
06/10:50am 8.1 6.1 4.4 77 1.7 NNW 4 4 2 2 1029.1 - 0.0
06/10:40am 7.6 5.5 3.8 77 1.7 NW 4 6 2 3 1029.2 - 0.0
06/10:30am 7.6 5.5 3.7 76 1.8 NNW 4 4 2 2 1029.3 - 0.0
06/10:20am 6.9 5.1 3.6 79 1.5 NNW 2 2 1 1 1029.4 - 0.0
06/10:10am 7.5 5.7 3.6 76 1.8 NNW 2 4 1 2 1029.4 - 0.0
06/10:00am 7.6 5.6 4.3 79 1.5 N 4 6 2 3 1029.4 - 0.0
06/09:50am 7.4 5.3 3.9 78 1.6 N 4 6 2 3 1029.3 - 0.0
06/09:40am 7.1 5.7 3.6 78 1.6 CALM 0 0 0 0 1029.4 - 0.0
06/09:30am 6.7 5.3 3.4 79 1.5 CALM 0 0 0 0 1029.4 - 0.0
06/09:20am 7.3 5.9 3.4 76 1.7 CALM 0 2 0 1 1029.3 - 0.0
06/09:10am 7.2 6.0 4.4 82 1.3 CALM 0 2 0 1 1029.3 - 0.0
06/09:00am 6.7 5.0 4.0 83 1.2 NNE 2 2 1 1 1029.2 - 0.0
06/08:50am 6.7 5.4 4.0 83 1.2 CALM 0 2 0 1 1029.2 - 0.0
06/08:40am 5.9 4.3 2.5 79 1.5 CALM 0 0 0 0 1029.2 - 0.0
06/08:30am 5.2 3.6 2.5 83 1.2 CALM 0 4 0 2 1029.1 - 0.0
06/08:20am 5.0 3.4 2.4 83 1.1 CALM 0 0 0 0 1029.0 - 0.0
06/08:10am 5.0 3.4 2.4 83 1.1 CALM 0 0 0 0 1028.9 - 0.0
06/08:00am 4.9 3.3 2.3 83 1.1 CALM 0 0 0 0 1028.7 - 0.0
06/07:50am 4.6 3.0 2.2 84 1.0 CALM 0 0 0 0 1028.6 - 0.0
06/07:40am 3.8 2.1 1.9 87 0.8 CALM 0 0 0 0 1028.6 - 0.0
06/07:30am 3.2 1.5 1.8 90 0.6 CALM 0 0 0 0 1028.6 - 0.0
06/07:20am 2.9 1.2 1.6 91 0.5 CALM 0 0 0 0 1028.4 - 0.0
06/07:10am 3.2 1.5 1.6 89 0.7 CALM 0 2 0 1 1028.3 - 0.0
06/07:00am 3.3 1.2 1.8 90 0.6 S 2 4 1 2 1028.2 - 0.0
06/06:50am 3.2 1.1 1.6 89 0.7 SSW 2 6 1 3 1028.1 - 0.0
06/06:40am 3.1 0.6 1.7 90 0.6 SSW 4 6 2 3 1028.0 - 0.0
06/06:30am 3.2 1.1 1.7 90 0.6 SSW 2 4 1 2 1027.9 - 0.0
06/06:20am 3.3 1.2 1.6 89 0.7 S 2 4 1 2 1027.8 - 0.0
06/06:10am 3.1 0.6 1.7 90 0.6 SSW 4 6 2 3 1027.7 - 0.0
06/06:00am 2.8 0.7 1.9 94 0.4 S 2 6 1 3 1027.5 - 0.0
06/05:50am 2.7 1.0 1.9 94 0.3 CALM 0 0 0 0 1027.4 - 0.0
06/05:40am 2.8 1.1 1.8 93 0.4 CALM 0 0 0 0 1027.4 - 0.0
06/05:30am 3.3 1.6 2.0 91 0.5 CALM 0 0 0 0 1027.3 - 0.0
06/05:20am 3.4 1.8 2.2 92 0.5 CALM 0 2 0 1 1027.1 - 0.0
06/05:10am 3.3 0.9 2.3 93 0.4 S 4 4 2 2 1027.1 - 0.0
06/05:00am 3.4 1.4 2.4 93 0.4 SSW 2 4 1 2 1027.0 - 0.0
06/04:50am 3.4 1.8 2.5 94 0.4 CALM 0 2 0 1 1027.0 - 0.0
06/04:40am 3.5 1.9 2.4 92 0.5 CALM 0 2 0 1 1027.0 - 0.0
06/04:30am 3.7 1.7 2.5 92 0.5 S 2 2 1 1 1026.9 - 0.0
06/04:20am 3.7 1.8 2.6 92 0.5 S 2 4 1 2 1026.9 - 0.0
06/04:10am 3.6 1.6 2.5 92 0.5 SSW 2 4 1 2 1026.9 - 0.0
06/04:00am 3.6 1.6 2.5 92 0.5 SW 2 4 1 2 1027.1 - 0.0
06/03:50am 3.5 1.5 2.5 93 0.4 SSW 2 4 1 2 1027.1 - 0.0
06/03:40am 3.6 1.6 2.4 92 0.5 SW 2 4 1 2 1027.1 - 0.0
06/03:30am 3.6 2.0 2.5 92 0.5 CALM 0 2 0 1 1027.0 - 0.0
06/03:20am 3.6 2.0 2.5 92 0.5 CALM 0 4 0 2 1027.0 - 0.0
06/03:10am 3.4 1.8 2.4 93 0.4 CALM 0 2 0 1 1027.1 - 0.0
06/03:00am 3.9 2.3 2.4 90 0.6 CALM 0 4 0 2 1027.0 - 0.0
06/02:50am 3.9 2.0 2.6 91 0.6 NE 2 2 1 1 1027.0 - 0.0
06/02:40am 3.6 1.7 2.7 94 0.4 E 2 4 1 2 1026.9 - 0.0
06/02:30am 3.7 2.1 2.7 93 0.4 CALM 0 4 0 2 1027.0 - 0.0
06/02:20am 3.8 2.2 2.7 92 0.5 CALM 0 2 0 1 1027.0 - 0.0
06/02:10am 3.9 2.4 2.8 92 0.5 CALM 0 0 0 0 1027.0 - 0.0
06/02:00am 3.8 2.3 2.8 93 0.4 CALM 0 0 0 0 1027.0 - 0.0
06/01:50am 3.8 2.3 2.9 94 0.4 CALM 0 0 0 0 1027.0 - 0.0
06/01:40am 3.7 2.2 2.8 94 0.4 CALM 0 2 0 1 1027.1 - 0.0
06/01:30am 3.8 1.9 2.8 93 0.4 N 2 4 1 2 1027.2 - 0.0
06/01:20am 4.0 2.1 2.8 92 0.5 ENE 2 4 1 2 1027.2 - 0.0
06/01:10am 4.5 2.6 2.9 89 0.7 NNE 2 4 1 2 1027.2 - 0.0
06/01:00am 4.4 2.5 2.9 90 0.6 SSE 2 6 1 3 1027.1 - 0.0
06/12:50am 4.4 2.5 3.0 91 0.6 S 2 4 1 2 1027.1 - 0.0
06/12:40am 4.4 2.2 3.1 91 0.6 S 4 6 2 3 1027.1 - 0.0
06/12:30am 4.2 1.6 3.0 92 0.5 S 6 6 3 3 1027.2 - 0.0
06/12:20am 4.0 1.8 3.1 94 0.4 S 4 6 2 3 1027.2 - 0.0
06/12:10am 4.2 2.3 3.1 92 0.5 W 2 4 1 2 1027.4 - 0.0
06/12:00am 4.6 3.2 3.3 91 0.6 CALM 0 2 0 1 1027.4 - 0.0
 
Date/Time
EST
Temp
°C
App
Temp
°C
Dew
Point
°C
Rel
Hum
%
Delta-T
°C
Wind Press
QNH
hPa
Press
MSL
hPa
Rain since
9am
mm
Dir  Spd
km/h
Gust
km/h
Spd
kts
Gust
kts
05/11:50pm 4.6 3.1 3.2 91 0.6 CALM 0 2 0 1 1027.2 - 0.0
05/11:40pm 4.7 2.5 3.3 91 0.6 SE 4 7 2 4 1027.2 - 0.0
05/11:30pm 4.6 2.0 3.3 91 0.6 S 6 7 3 4 1027.1 - 0.0
05/11:20pm 4.5 2.3 3.3 92 0.5 SSW 4 7 2 4 1027.1 - 0.0
05/11:10pm 4.6 1.8 3.3 91 0.6 S 7 9 4 5 1027.1 - 0.0
05/11:00pm 4.3 1.7 3.3 93 0.4 S 6 9 3 5 1027.1 - 0.0
05/10:50pm 4.3 1.7 3.3 93 0.4 S 6 9 3 5 1026.9 - 0.0
05/10:40pm 4.4 2.6 3.2 92 0.5 S 2 6 1 3 1026.9 - 0.0
05/10:30pm 4.5 2.7 3.4 93 0.5 SSE 2 6 1 3 1026.8 - 0.0
05/10:20pm 4.7 2.9 3.4 91 0.6 NNW 2 6 1 3 1026.7 - 0.0
05/10:10pm 5.1 2.9 3.5 89 0.7 N 4 6 2 3 1026.7 - 0.0
05/10:00pm 5.3 2.8 3.6 89 0.8 N 6 7 3 4 1026.5 - 0.0
05/09:50pm 5.8 3.3 3.6 86 1.0 NNE 6 7 3 4 1026.4 - 0.0
05/09:40pm 6.0 3.8 3.6 84 1.1 NNE 4 4 2 2 1026.3 - 0.0
05/09:30pm 5.6 4.2 3.7 87 0.8 CALM 0 2 0 1 1026.3 - 0.0
05/09:20pm 6.0 4.3 3.8 86 1.0 NNW 2 4 1 2 1026.2 - 0.0
05/09:10pm 6.4 4.7 3.9 84 1.1 N 2 4 1 2 1026.1 - 0.0
05/09:00pm 6.5 4.8 4.0 84 1.1 NNE 2 4 1 2 1026.1 - 0.0
05/08:50pm 6.5 4.3 3.6 82 1.3 N 4 6 2 3 1026.0 - 0.0
05/08:40pm 6.7 5.3 3.5 80 1.4 CALM 0 2 0 1 1025.8 - 0.0
05/08:30pm 6.9 5.1 3.6 79 1.5 NE 2 4 1 2 1025.8 - 0.0
05/08:20pm 6.8 5.4 3.6 80 1.4 CALM 0 0 0 0 1025.6 - 0.0
05/08:10pm 6.9 5.1 3.6 79 1.5 SW 2 4 1 2 1025.6 - 0.0
05/08:00pm 6.8 5.0 3.6 80 1.4 ESE 2 7 1 4 1025.5 - 0.0
05/07:50pm 6.8 3.7 3.7 80 1.4 SE 9 9 5 5 1025.4 - 0.0
05/07:40pm 7.2 4.5 3.9 79 1.5 ESE 7 9 4 5 1025.2 - 0.0
05/07:30pm 7.2 5.9 3.9 79 1.5 CALM 0 6 0 3 1025.2 - 0.0
05/07:20pm 7.3 5.6 4.0 79 1.5 S 2 4 1 2 1025.1 - 0.0
05/07:10pm 7.3 5.3 4.2 81 1.4 S 4 6 2 3 1024.9 - 0.0
05/07:00pm 7.2 5.2 4.3 82 1.3 S 4 4 2 2 1024.8 - 0.0
05/06:50pm 7.3 6.1 4.4 82 1.3 CALM 0 0 0 0 1024.8 - 0.0
05/06:40pm 7.4 6.2 4.5 82 1.3 CALM 0 2 0 1 1024.8 - 0.0
05/06:30pm 7.3 5.7 4.5 82 1.3 ENE 2 6 1 3 1024.6 - 0.0
05/06:20pm 7.2 4.8 4.3 82 1.3 NE 6 6 3 3 1024.5 - 0.0
05/06:10pm 7.3 6.1 4.4 82 1.3 CALM 0 4 0 2 1024.3 - 0.0
05/06:00pm 7.4 5.8 4.3 81 1.4 S 2 2 1 1 1024.1 - 0.0
05/05:50pm 7.5 6.2 4.3 80 1.5 CALM 0 2 0 1 1024.0 - 0.0
05/05:40pm 7.5 6.3 4.4 81 1.4 CALM 0 2 0 1 1023.8 - 0.0
05/05:30pm 7.5 5.9 4.4 81 1.4 ENE 2 6 1 3 1023.7 - 0.0
05/05:20pm 7.7 5.7 4.5 80 1.5 NE 4 6 2 3 1023.6 - 0.0
05/05:10pm 7.9 6.0 4.7 80 1.5 NNE 4 6 2 3 1023.4 - 0.0
05/05:00pm 8.2 5.9 4.7 78 1.6 NE 6 7 3 4 1023.4 - 0.0
05/04:50pm 8.6 6.3 4.9 77 1.7 NNE 6 7 3 4 1023.3 - 0.0
05/04:40pm 9.3 7.1 5.3 76 1.9 N 6 7 3 4 1023.2 - 0.0
05/04:30pm 10.4 8.2 5.5 71 2.4 N 6 7 3 4 1023.3 - 0.0
05/04:20pm 11.3 9.1 5.5 67 2.8 NNW 6 7 3 4 1023.2 - 0.0
05/04:10pm 11.4 9.1 5.5 67 2.9 NNW 7 9 4 5 1023.2 - 0.0
05/04:00pm 11.6 9.2 5.4 65 3.0 NNW 7 9 4 5 1023.2 - 0.0
05/03:50pm 11.5 8.7 5.2 65 3.0 N 9 11 5 6 1023.1 - 0.0
05/03:40pm 11.3 8.4 4.9 65 3.1 N 9 11 5 6 1023.1 - 0.0
05/03:30pm 11.0 8.1 4.6 64 3.0 N 9 13 5 7 1023.1 - 0.0
05/03:20pm 11.0 8.1 4.6 64 3.0 N 9 13 5 7 1023.1 - 0.0
05/03:10pm 10.8 7.4 4.2 64 3.1 N 11 13 6 7 1023.1 - 0.0
05/03:00pm 11.2 8.6 4.3 62 3.3 N 7 13 4 7 1022.9 - 0.0
05/02:50pm 11.1 8.3 3.4 59 3.6 N 7 13 4 7 1022.9 - 0.0
05/02:40pm 11.1 7.6 3.3 58 3.6 N 11 13 6 7 1022.8 - 0.0
05/02:30pm 11.0 7.6 3.9 61 3.3 N 11 13 6 7 1022.7 - 0.0
05/02:20pm 11.3 8.1 3.3 58 3.7 NNE 9 13 5 7 1022.6 - 0.0
05/02:10pm 11.9 9.3 4.1 59 3.7 NNW 7 13 4 7 1022.6 - 0.0
05/02:00pm 11.9 9.3 4.3 59 3.6 N 7 9 4 5 1022.6 - 0.0
05/01:50pm 11.6 8.9 3.9 59 3.6 NNW 7 9 4 5 1022.5 - 0.0
05/01:40pm 11.4 8.7 3.7 59 3.6 NW 7 9 4 5 1022.6 - 0.0
05/01:30pm 11.4 8.9 3.5 58 3.7 NNW 6 9 3 5 1022.7 - 0.0
05/01:20pm 11.2 8.5 3.6 59 3.5 N 7 11 4 6 1022.7 - 0.0
05/01:10pm 11.3 8.0 2.7 55 3.9 NNW 9 11 5 6 1022.8 - 0.0
05/01:00pm 10.8 7.5 2.6 57 3.7 N 9 13 5 7 1022.9 - 0.0
05/12:50pm 11.2 8.4 3.4 58 3.6 N 7 11 4 6 1022.9 - 0.0
05/12:40pm 11.5 8.3 3.2 56 3.8 NNW 9 11 5 6 1022.9 - 0.0
05/12:30pm 11.2 8.4 3.0 57 3.8 N 7 9 4 5 1023.1 - 0.0
05/12:20pm 10.1 7.1 2.1 57 3.6 NNE 7 11 4 6 1023.2 - 0.0
05/12:10pm 10.2 7.2 2.0 57 3.7 N 7 11 4 6 1023.4 - 0.0
05/12:00pm 10.1 7.3 2.9 61 3.3 NNE 7 9 4 5 1023.5 - 0.0
05/11:50am 9.8 6.4 2.1 58 3.4 N 9 11 5 6 1023.6 - 0.0
05/11:40am 10.1 6.8 2.5 59 3.4 N 9 13 5 7 1023.7 - 0.0
05/11:30am 10.6 7.9 3.6 62 3.2 N 7 9 4 5 1023.7 - 0.0
05/11:20am 10.3 7.3 2.3 57 3.6 N 7 9 4 5 1023.9 - 0.0
05/11:10am 10.2 7.2 2.1 57 3.6 NNW 7 9 4 5 1024.0 - 0.0
05/11:00am 9.5 7.1 1.9 59 3.4 NNW 4 7 2 4 1024.1 - 0.0
05/10:50am 9.1 6.2 1.2 57 3.4 NW 6 7 3 4 1024.1 - 0.0
05/10:40am 8.8 5.8 1.1 58 3.3 N 6 7 3 4 1024.1 - 0.0
05/10:30am 8.8 6.2 1.2 59 3.3 NNE 4 9 2 5 1024.1 - 0.0
05/10:20am 8.1 5.6 1.8 64 2.7 W 4 7 2 4 1024.1 - 0.0
05/10:10am 7.8 5.5 2.9 71 2.2 WNW 4 6 2 3 1024.1 - 0.0
05/10:00am 7.7 4.9 3.2 73 2.0 NW 7 9 4 5 1024.1 - 0.0
05/09:50am 8.4 5.7 3.8 73 2.1 NNW 7 11 4 6 1024.1 - 0.0
05/09:40am 8.0 4.2 1.7 64 2.7 N 11 11 6 6 1024.0 - 0.0
05/09:30am 7.8 3.6 1.7 65 2.6 NNE 13 13 7 7 1023.9 - 0.0
05/09:20am 7.5 3.6 1.3 65 2.7 NE 11 11 6 6 1023.8 - 0.0
05/09:10am 7.2 4.1 1.6 67 2.4 NE 7 11 4 6 1023.6 - 0.0
05/09:00am 7.4 5.1 2.9 73 2.0 NNE 4 6 2 3 1023.6 - 0.0
05/08:50am 7.3 4.5 1.8 68 2.4 NNE 6 7 3 4 1023.3 - 0.0
05/08:40am 7.5 5.7 0.9 63 2.8 CALM 0 4 0 2 1023.2 - 0.0
05/08:30am 6.7 4.4 0.3 63 2.6 ENE 2 4 1 2 1023.1 - 0.0
05/08:20am 6.3 3.7 0.8 68 2.3 N 4 4 2 2 1023.0 - 0.0
05/08:10am 6.2 3.4 -0.4 62 2.7 SSW 4 6 2 3 1023.0 - 0.0
05/08:00am 6.0 2.8 -0.5 63 2.6 SSW 6 7 3 4 1022.8 - 0.0
05/07:50am 5.8 3.0 -0.6 63 2.6 SSW 4 6 2 3 1022.6 - 0.0
05/07:40am 5.5 2.7 -0.3 66 2.3 SW 4 4 2 2 1022.5 - 0.0
05/07:30am 5.2 2.7 -0.8 65 2.4 SW 2 6 1 3 1022.3 - 0.0
05/07:20am 4.9 1.7 -0.6 67 2.2 S 6 9 3 5 1022.2 - 0.0
05/07:10am 5.1 1.7 -0.6 66 2.3 S 7 9 4 5 1022.1 - 0.0
05/07:00am 5.2 1.0 -0.6 66 2.3 S 11 15 6 8 1022.1 - 0.0
05/06:50am 5.1 1.3 -0.4 67 2.2 S 9 13 5 7 1022.0 - 0.0
05/06:40am 5.1 1.0 -0.2 68 2.1 SSW 11 13 6 7 1021.9 - 0.0
05/06:30am 5.4 0.5 -0.3 67 2.3 SSW 15 17 8 9 1021.8 - 0.0
05/06:20am 5.4 0.6 -0.1 67 2.2 S 15 22 8 12 1021.7 - 0.0
05/06:10am 5.2 0.3 -0.3 67 2.2 SSW 15 22 8 12 1021.5 - 0.0
05/06:00am 5.1 1.0 0.0 69 2.1 SSW 11 15 6 8 1021.4 - 0.0
05/05:50am 5.0 0.9 0.1 70 2.0 S 11 13 6 7 1021.3 - 0.0
05/05:40am 5.1 1.1 0.3 71 2.0 S 11 15 6 8 1021.3 - 0.0
05/05:30am 4.9 0.9 0.2 71 1.9 S 11 13 6 7 1021.2 - 0.0
05/05:20am 4.8 1.5 0.4 73 1.8 S 7 11 4 6 1021.1 - 0.0
05/05:10am 4.8 2.9 0.8 75 1.6 CALM 0 2 0 1 1021.1 - 0.0
05/05:00am 4.8 3.0 0.9 76 1.6 CALM 0 2 0 1 1021.0 - 0.0
05/04:50am 5.0 2.8 0.9 75 1.7 SE 2 4 1 2 1021.1 - 0.0
05/04:40am 5.1 2.8 0.7 73 1.8 ENE 2 2 1 1 1021.1 - 0.0
05/04:30am 4.9 2.3 1.1 76 1.6 NE 4 6 2 3 1021.2 - 0.0
05/04:20am 5.2 3.4 1.0 74 1.7 CALM 0 4 0 2 1021.1 - 0.0
05/04:10am 5.4 2.8 1.1 74 1.8 ENE 4 7 2 4 1021.2 - 0.0
05/04:00am 5.4 2.8 0.7 72 1.9 N 4 7 2 4 1021.3 - 0.0
05/03:50am 5.3 3.1 1.0 74 1.8 S 2 6 1 3 1021.3 - 0.0
05/03:40am 5.6 2.6 1.0 72 1.9 SSW 6 9 3 5 1021.3 - 0.0
05/03:30am 5.7 2.2 1.0 72 2.0 SSW 9 11 5 6 1021.3 - 0.0
05/03:20am 6.1 1.4 1.2 71 2.1 SSW 15 24 8 13 1021.3 - 0.0
05/03:10am 6.0 0.5 0.9 70 2.1 SSW 19 22 10 12 1021.2 - 0.0
05/03:00am 5.7 1.0 0.9 71 2.0 SSW 15 17 8 9 1021.3 - 0.0
05/02:50am 5.5 1.6 1.0 73 1.9 S 11 15 6 8 1021.6 - 0.0
05/02:40am 5.5 1.6 1.2 74 1.8 SSW 11 13 6 7 1021.5 - 0.0
05/02:30am 5.7 1.4 1.3 73 1.8 SSW 13 17 7 9 1021.6 - 0.0
05/02:20am 5.5 1.2 1.2 74 1.8 SSW 13 17 7 9 1021.5 - 0.0
05/02:10am 5.6 1.7 1.1 73 1.9 SSW 11 13 6 7 1021.5 - 0.0
05/02:00am 5.4 2.5 1.2 74 1.8 SSW 6 7 3 4 1021.6 - 0.0
05/01:50am 5.4 2.3 1.1 74 1.8 SSW 7 11 4 6 1021.5 - 0.0
05/01:40am 5.3 1.8 1.3 75 1.7 SW 9 13 5 7 1021.6 - 0.0
05/01:30am 5.6 2.5 1.2 73 1.8 SW 7 15 4 8 1021.7 - 0.0
05/01:20am 5.6 2.5 1.1 73 1.9 WSW 7 9 4 5 1021.7 - 0.0
05/01:10am 5.7 2.5 1.0 72 2.0 SW 7 11 4 6 1021.7 - 0.0
05/01:00am 5.9 2.0 1.1 71 2.0 SW 11 13 6 7 1021.7 - 0.0
05/12:50am 5.9 1.6 1.1 71 2.0 SW 13 20 7 11 1021.7 - 0.0
05/12:40am 6.0 0.6 1.0 70 2.1 SW 19 22 10 12 1021.7 - 0.0
05/12:30am 5.9 1.2 1.2 72 2.0 SSW 15 19 8 10 1021.7 - 0.0
05/12:20am 5.8 1.9 1.2 72 1.9 SW 11 17 6 9 1021.8 - 0.0
05/12:10am 6.1 2.2 1.2 71 2.1 SW 11 19 6 10 1021.9 - 0.0
05/12:00am 6.0 1.7 1.0 70 2.1 SW 13 19 7 10 1021.9 - 0.0
 
Date/Time
EST
Temp
°C
App
Temp
°C
Dew
Point
°C
Rel
Hum
%
Delta-T
°C
Wind Press
QNH
hPa
Press
MSL
hPa
Rain since
9am
mm
Dir  Spd
km/h
Gust
km/h
Spd
kts
Gust
kts
04/11:50pm 6.1 1.1 1.2 71 2.1 SSW 17 26 9 14 1022.0 - 0.0
04/11:40pm 6.0 1.3 0.8 69 2.2 SW 15 24 8 13 1021.9 - 0.0
04/11:30pm 5.9 2.7 0.9 70 2.1 WSW 7 15 4 8 1022.1 - 0.0
04/11:20pm 5.6 2.4 1.0 72 1.9 WSW 7 11 4 6 1022.1 - 0.0
04/11:10pm 5.4 1.9 1.1 74 1.8 W 9 13 5 7 1022.0 - 0.0
04/11:00pm 5.3 2.2 1.1 74 1.7 W 7 11 4 6 1021.9 - 0.0
04/10:50pm 5.3 2.2 1.1 74 1.7 WSW 7 11 4 6 1021.9 - 0.0
04/10:40pm 5.3 1.8 1.2 75 1.7 W 9 11 5 6 1022.0 - 0.0
04/10:30pm 5.3 2.2 1.2 75 1.7 W 7 11 4 6 1022.0 - 0.0
04/10:20pm 5.3 2.2 1.3 75 1.7 W 7 15 4 8 1022.0 - 0.0
04/10:10pm 5.4 1.5 1.1 74 1.8 WSW 11 22 6 12 1021.9 - 0.0
04/10:00pm 5.4 1.5 1.2 74 1.8 WSW 11 17 6 9 1021.9 - 0.0
04/09:50pm 5.6 1.3 1.2 73 1.8 WSW 13 22 7 12 1022.1 - 0.0
04/09:40pm 5.5 1.6 1.2 74 1.8 WSW 11 22 6 12 1022.2 - 0.0
04/09:30pm 5.4 1.1 1.0 73 1.8 WSW 13 19 7 10 1022.1 - 0.0
04/09:20pm 5.4 1.1 0.9 73 1.9 WSW 13 20 7 11 1022.0 - 0.0
04/09:10pm 5.5 0.4 0.6 71 2.0 SW 17 26 9 14 1021.9 - 0.0
04/09:00pm 5.4 -0.1 0.6 71 2.0 SW 19 26 10 14 1021.9 - 0.0
04/08:50pm 5.2 0.8 0.6 72 1.9 SW 13 19 7 10 1021.9 - 0.0
04/08:40pm 5.4 0.7 0.6 71 2.0 SW 15 26 8 14 1021.8 - 0.0
04/08:30pm 5.4 -0.7 0.5 71 2.0 SW 22 30 12 16 1021.9 - 0.0
04/08:20pm 5.5 -1.7 0.4 70 2.1 SW 28 32 15 17 1021.8 - 0.0
04/08:10pm 5.5 -1.7 0.4 70 2.1 SW 28 35 15 19 1021.7 - 0.0
04/08:00pm 5.4 -1.5 0.4 70 2.0 SW 26 30 14 16 1021.7 - 0.0
04/07:50pm 5.4 -1.1 0.5 71 2.0 SW 24 28 13 15 1021.7 - 0.0
04/07:40pm 5.4 -0.7 0.6 71 2.0 SW 22 30 12 16 1021.6 - 0.0
04/07:30pm 5.4 -1.4 0.5 71 2.0 SW 26 33 14 18 1021.5 - 0.0
04/07:20pm 5.3 -1.2 0.6 72 1.9 SW 24 28 13 15 1021.5 - 0.0
04/07:10pm 5.1 -1.0 0.6 73 1.8 SW 22 28 12 15 1021.4 - 0.0
04/07:00pm 5.3 -1.9 0.7 72 1.9 SW 28 33 15 18 1021.4 - 0.0
04/06:50pm 5.2 -1.6 0.7 73 1.9 SW 26 32 14 17 1021.3 - 0.0
04/06:40pm 5.3 -1.9 0.9 73 1.8 SW 28 37 15 20 1021.2 - 0.0
04/06:30pm 5.4 -2.5 0.8 72 1.9 SW 32 37 17 20 1020.8 - 0.0
04/06:20pm 5.4 -2.2 0.6 71 2.0 SW 30 35 16 19 1020.7 - 0.0
04/06:10pm 5.5 -1.7 0.6 71 2.0 SW 28 32 15 17 1020.7 - 0.0
04/06:00pm 5.5 -2.5 0.5 70 2.1 SW 32 35 17 19 1020.4 - 0.0
04/05:50pm 5.6 -2.4 0.4 69 2.1 SW 32 37 17 20 1020.2 - 0.0
04/05:40pm 5.7 -1.9 0.5 69 2.1 SW 30 37 16 20 1020.3 - 0.0
04/05:30pm 5.8 -2.4 0.3 68 2.3 SW 33 43 18 23 1020.2 - 0.0
04/05:20pm 5.8 -1.4 0.6 69 2.1 SW 28 30 15 16 1020.1 - 0.0
04/05:10pm 6.0 -2.0 0.5 68 2.3 SW 32 43 17 23 1020.1 - 0.0
04/05:00pm 6.1 -1.1 0.5 67 2.3 SW 28 37 15 20 1019.9 - 0.0
04/04:50pm 6.3 -0.6 0.4 66 2.4 SW 26 37 14 20 1020.1 - 0.0
04/04:40pm 6.6 1.9 1.1 68 2.3 SW 15 22 8 12 1020.2 - 0.0
04/04:30pm 7.4 3.5 1.2 65 2.6 SW 11 22 6 12 1020.0 - 0.0
04/04:20pm 8.2 3.9 0.8 59 3.1 SW 13 20 7 11 1020.0 - 0.0
04/04:10pm 8.7 4.4 1.1 59 3.3 SW 13 17 7 9 1020.0 - 0.0
04/04:00pm 8.9 4.3 1.6 60 3.2 SW 15 22 8 12 1020.1 - 0.0
04/03:50pm 9.1 4.4 0.7 55 3.6 SW 15 22 8 12 1020.1 - 0.0
04/03:40pm 9.2 3.7 0.4 54 3.7 SSW 19 24 10 13 1020.1 - 0.0
04/03:30pm 9.2 3.1 0.5 54 3.7 SSW 22 26 12 14 1020.2 - 0.0
04/03:20pm 9.3 3.6 0.5 54 3.8 SW 20 30 11 16 1020.2 - 0.0
04/03:10pm 9.4 3.8 0.1 52 3.9 SW 19 22 10 12 1020.2 - 0.0
04/03:00pm 9.3 3.7 -0.3 51 4.0 SW 19 24 10 13 1020.0 - 0.0
04/02:50pm 9.5 5.0 -0.4 50 4.1 SW 13 22 7 12 1019.9 - 0.0
04/02:40pm 9.6 5.5 -0.4 49 4.2 SW 11 15 6 8 1020.0 - 0.0
04/02:30pm 9.6 5.5 -0.1 51 4.1 SW 11 15 6 8 1019.9 - 0.0
04/02:20pm 9.6 5.8 -0.5 49 4.2 SW 9 17 5 9 1020.0 - 0.0
04/02:10pm 9.3 5.4 -1.6 46 4.4 WSW 9 15 5 8 1020.0 - 0.0
04/02:00pm 9.0 5.1 -1.4 48 4.2 WSW 9 13 5 7 1020.1 - 0.0
04/01:50pm 8.7 4.4 -1.9 47 4.3 SW 11 15 6 8 1020.1 - 0.0
04/01:40pm 8.5 2.9 -2.7 45 4.4 SW 17 22 9 12 1020.2 - 0.0
04/01:30pm 8.2 1.0 -1.8 49 4.0 SSW 26 33 14 18 1020.4 - 0.0
04/01:20pm 8.4 3.7 -2.0 48 4.1 SW 13 26 7 14 1020.4 - 0.0
04/01:10pm 8.3 5.1 0.8 59 3.2 N 7 13 4 7 1020.6 - 0.0
04/01:00pm 8.1 4.3 1.6 63 2.8 NNE 11 15 6 8 1020.4 - 0.0
04/12:50pm 9.2 6.3 2.6 63 3.0 N 7 11 4 6 1020.5 - 0.0
04/12:40pm 8.9 6.0 1.3 59 3.3 N 6 7 3 4 1020.6 - 0.0
04/12:30pm 8.6 5.3 0.0 55 3.6 N 7 9 4 5 1020.9 - 0.0
04/12:20pm 8.5 5.7 2.2 64 2.8 NNW 6 11 3 6 1021.0 - 0.0
04/12:10pm 7.9 5.0 1.3 63 2.8 NNW 6 7 3 4 1021.1 - 0.0
04/12:00pm 7.3 4.3 0.9 64 2.7 N 6 7 3 4 1021.3 - 0.0

Latest Capital City Observations: Canberra | Sydney | Melbourne | Brisbane | Adelaide | Perth | Hobart | Darwin

Other formats

Comma delimited format used in spreadsheet applications
http://www.bom.gov.au/fwo/IDN60903/IDN60903.99762.axf

JavaScript Object Notation format (JSON) in row-major order
http://www.bom.gov.au/fwo/IDN60903/IDN60903.99762.json

Data quality

Most of these data are generated automatically and are frequently updated. Quality checks on data are not normally performed. It is possible for incorrect values to appear. Refer to information at About Latest Weather Observations and please check the disclaimer before using these data.